createdAt,value
2022-11-14T05:00:29.113Z,95.37
2022-11-14T05:01:29.141Z,94.90
2022-11-14T05:02:29.046Z,95.94
2022-11-14T05:03:29.022Z,96.03
2022-11-14T05:04:29.011Z,95.83
2022-11-14T05:05:29.022Z,95.94
2022-11-14T05:06:28.998Z,95.99
2022-11-14T05:07:29.035Z,95.73
2022-11-14T05:08:29.320Z,95.83
2022-11-14T05:09:28.954Z,96.03
2022-11-14T05:10:28.962Z,96.45
2022-11-14T05:11:33.954Z,96.03
2022-11-14T05:12:28.934Z,95.94
2022-11-14T05:13:28.910Z,96.20
2022-11-14T05:14:28.903Z,96.20
2022-11-14T05:15:28.885Z,95.99
2022-11-14T05:16:28.882Z,96.20
2022-11-14T05:17:28.903Z,96.14
2022-11-14T05:18:29.157Z,95.68
2022-11-14T05:19:28.850Z,95.99
2022-11-14T05:20:28.833Z,96.09
2022-11-14T05:21:28.821Z,95.99
2022-11-14T05:22:33.853Z,96.41
2022-11-14T05:23:28.803Z,95.99
2022-11-14T05:24:28.803Z,96.20
2022-11-14T05:25:28.790Z,96.30
2022-11-14T05:26:28.766Z,96.20
2022-11-14T05:27:28.772Z,95.99
2022-11-14T05:28:29.081Z,95.99
2022-11-14T05:29:28.731Z,95.99
2022-11-14T05:30:28.725Z,96.09
2022-11-14T05:31:28.714Z,96.09
2022-11-14T05:32:28.716Z,96.09
2022-11-14T05:33:33.732Z,96.61
2022-11-14T05:34:28.683Z,96.20
2022-11-14T05:35:28.667Z,96.41
2022-11-14T05:36:28.664Z,96.41
2022-11-14T05:37:28.655Z,96.41
2022-11-14T05:38:29.243Z,96.41
2022-11-14T05:39:28.624Z,96.82
2022-11-14T05:40:28.617Z,96.36
2022-11-14T05:41:28.612Z,96.20
2022-11-14T05:42:28.613Z,96.56
2022-11-14T05:43:28.579Z,96.30
2022-11-14T05:44:33.592Z,96.36
2022-11-14T05:45:28.555Z,96.26
2022-11-14T05:46:28.548Z,96.20
2022-11-14T05:47:28.553Z,96.41
2022-11-14T05:48:28.948Z,96.09
2022-11-14T05:49:28.535Z,96.20
2022-11-14T05:50:28.513Z,96.36
2022-11-14T05:51:28.499Z,96.30
2022-11-14T05:52:28.533Z,96.09
2022-11-14T05:53:28.464Z,96.61
2022-11-14T05:54:28.461Z,96.61
2022-11-14T05:55:33.467Z,97.02
2022-11-14T05:56:28.432Z,96.82
2022-11-14T05:57:28.454Z,96.82
2022-11-14T05:58:28.807Z,96.61
2022-11-14T05:59:28.400Z,96.51
2022-11-14T06:00:28.388Z,96.82
2022-11-14T06:01:28.375Z,96.82
2022-11-14T06:02:28.458Z,96.82
2022-11-14T06:03:28.394Z,96.41
2022-11-14T06:04:28.459Z,97.02
2022-11-14T06:05:28.353Z,96.72
2022-11-14T06:06:33.345Z,96.61
2022-11-14T06:07:28.374Z,96.51
2022-11-14T06:08:28.569Z,96.55
2022-11-14T06:09:28.301Z,96.82
2022-11-14T06:10:28.279Z,97.02
2022-11-14T06:11:28.278Z,96.82
2022-11-14T06:12:28.288Z,96.51
2022-11-14T06:13:28.247Z,96.72
2022-11-14T06:14:28.238Z,96.61
2022-11-14T06:15:28.221Z,96.61
2022-11-14T06:16:28.215Z,96.72
2022-11-14T06:17:33.244Z,96.67
2022-11-14T06:18:28.564Z,96.51
2022-11-14T06:19:28.240Z,96.47
2022-11-14T06:20:28.175Z,96.82
2022-11-14T06:21:28.184Z,96.26
2022-11-14T06:22:28.157Z,96.36
2022-11-14T06:23:28.131Z,96.09
2022-11-14T06:24:28.126Z,96.15
2022-11-14T06:25:28.114Z,96.41
2022-11-14T06:26:28.114Z,96.30
2022-11-14T06:27:28.118Z,96.09
2022-11-14T06:28:33.318Z,95.99
2022-11-14T06:29:32.650Z,96.30
2022-11-14T06:30:29.064Z,96.61
2022-11-14T06:31:28.052Z,97.02
2022-11-14T06:32:28.069Z,96.82
2022-11-14T06:33:28.020Z,96.72
2022-11-14T06:34:28.016Z,96.97
2022-11-14T06:35:28.004Z,97.02
2022-11-14T06:36:27.991Z,97.02
2022-11-14T06:37:32.582Z,97.02
2022-11-14T06:38:29.276Z,97.23
2022-11-14T06:39:32.984Z,96.92
2022-11-14T06:40:27.953Z,97.02
2022-11-14T06:41:27.935Z,96.92
2022-11-14T06:42:27.942Z,96.92
2022-11-14T06:43:27.958Z,97.13
2022-11-14T06:44:30.960Z,97.44
2022-11-14T06:45:27.900Z,97.23
2022-11-14T06:46:27.884Z,97.33
2022-11-14T06:47:27.887Z,97.19
2022-11-14T06:48:28.161Z,97.29
2022-11-14T06:49:28.017Z,96.88
2022-11-14T06:50:32.857Z,96.88
2022-11-14T06:51:27.823Z,96.77
2022-11-14T06:52:27.833Z,96.67
2022-11-14T06:53:27.825Z,96.47
2022-11-14T06:54:27.792Z,96.15
2022-11-14T06:55:27.782Z,96.15
2022-11-14T06:56:27.768Z,95.95
2022-11-14T06:57:27.765Z,95.95
2022-11-14T06:58:28.202Z,96.05
2022-11-14T06:59:27.739Z,95.95
2022-11-14T07:00:27.726Z,95.64
2022-11-14T07:01:32.746Z,95.74
2022-11-14T07:02:27.713Z,95.32
2022-11-14T07:03:27.752Z,95.12
2022-11-14T07:04:27.688Z,95.22
2022-11-14T07:05:27.664Z,95.49
2022-11-14T07:06:27.659Z,95.18
2022-11-14T07:07:28.926Z,94.97
2022-11-14T07:08:27.634Z,95.12
2022-11-14T07:09:27.639Z,95.07
2022-11-14T07:10:27.617Z,95.07
2022-11-14T07:11:27.597Z,95.18
2022-11-14T07:12:32.626Z,94.56
2022-11-14T07:13:27.579Z,94.19
2022-11-14T07:14:27.565Z,94.04
2022-11-14T07:15:27.553Z,94.04
2022-11-14T07:16:27.562Z,94.25
2022-11-14T07:17:31.149Z,94.19
2022-11-14T07:18:27.765Z,94.19
2022-11-14T07:19:27.509Z,93.88
2022-11-14T07:20:27.498Z,94.09
2022-11-14T07:21:27.498Z,93.84
2022-11-14T07:22:27.489Z,94.04
2022-11-14T07:23:32.500Z,94.04
2022-11-14T07:24:27.464Z,94.04
2022-11-14T07:25:27.459Z,93.94
2022-11-14T07:26:27.430Z,93.53
2022-11-14T07:27:27.433Z,93.01
2022-11-14T07:28:27.616Z,93.63
2022-11-14T07:29:27.395Z,93.32
2022-11-14T07:30:27.394Z,93.73
2022-11-14T07:31:27.378Z,93.12
2022-11-14T07:32:27.379Z,92.80
2022-11-14T07:33:27.352Z,93.73
2022-11-14T07:34:32.367Z,93.63
2022-11-14T07:35:27.330Z,93.69
2022-11-14T07:36:27.317Z,93.79
2022-11-14T07:37:27.315Z,92.86
2022-11-14T07:38:27.610Z,92.66
2022-11-14T07:39:27.284Z,92.04
2022-11-14T07:40:27.274Z,91.94
2022-11-14T07:41:27.292Z,92.04
2022-11-14T07:42:27.260Z,91.52
2022-11-14T07:43:27.250Z,92.14
2022-11-14T07:44:27.228Z,91.63
2022-11-14T07:45:32.271Z,91.73
2022-11-14T07:46:27.213Z,91.83
2022-11-14T07:47:27.207Z,91.63
2022-11-14T07:48:27.498Z,91.83
2022-11-14T07:49:27.174Z,90.39
2022-11-14T07:50:27.168Z,91.11
2022-11-14T07:51:27.161Z,91.01
2022-11-14T07:52:27.162Z,91.11
2022-11-14T07:53:27.130Z,91.22
2022-11-14T07:54:27.136Z,91.32
2022-11-14T07:55:27.107Z,91.73
2022-11-14T07:56:32.147Z,91.42
2022-11-14T07:57:27.114Z,90.59
2022-11-14T07:58:27.348Z,90.91
2022-11-14T07:59:27.059Z,91.07
2022-11-14T08:00:27.400Z,90.76
2022-11-14T08:01:27.136Z,90.66
2022-11-14T08:02:27.031Z,90.76
2022-11-14T08:03:27.030Z,90.04
2022-11-14T08:04:27.004Z,90.10
2022-11-14T08:05:26.992Z,90.20
2022-11-14T08:06:27.129Z,89.69
2022-11-14T08:07:32.073Z,89.38
2022-11-14T08:08:27.334Z,89.58
2022-11-14T08:09:26.945Z,89.79
2022-11-14T08:10:32.336Z,89.34
2022-11-14T08:11:35.249Z,89.34
2022-11-14T08:12:27.941Z,88.65
2022-11-14T08:13:34.173Z,88.41
2022-11-14T08:14:27.895Z,88.82
2022-11-14T08:15:26.881Z,89.23
2022-11-14T08:16:26.875Z,88.51
2022-11-14T08:17:26.857Z,88.82
2022-11-14T08:18:32.179Z,88.72
2022-11-14T08:19:26.842Z,88.72
2022-11-14T08:20:26.922Z,88.31
2022-11-14T08:21:26.817Z,88.62
2022-11-14T08:22:26.802Z,88.62
2022-11-14T08:23:26.806Z,88.10
2022-11-14T08:24:26.785Z,87.99
2022-11-14T08:25:26.787Z,88.56
2022-11-14T08:26:31.464Z,88.65
2022-11-14T08:27:27.746Z,88.72
2022-11-14T08:28:27.073Z,88.86
2022-11-14T08:29:31.755Z,89.03
2022-11-14T08:30:26.778Z,88.82
2022-11-14T08:31:26.702Z,88.72
2022-11-14T08:32:26.692Z,88.51
2022-11-14T08:33:26.696Z,88.41
2022-11-14T08:34:26.685Z,87.99
2022-11-14T08:35:26.656Z,88.10
2022-11-14T08:36:26.662Z,88.31
2022-11-14T08:37:26.635Z,87.99
2022-11-14T08:38:26.717Z,87.99
2022-11-14T08:39:26.689Z,87.99
2022-11-14T08:40:31.630Z,88.24
2022-11-14T08:41:26.590Z,88.45
2022-11-14T08:42:26.599Z,88.51
2022-11-14T08:43:26.579Z,88.41
2022-11-14T08:44:26.579Z,88.10
2022-11-14T08:45:26.547Z,87.99
2022-11-14T08:46:26.559Z,87.99
2022-11-14T08:47:26.535Z,87.90
2022-11-14T08:48:26.549Z,87.99
2022-11-14T08:49:26.504Z,88.20
2022-11-14T08:50:26.492Z,87.99
2022-11-14T08:51:31.502Z,88.20
2022-11-14T08:52:26.471Z,88.10
2022-11-14T08:53:26.483Z,87.85
2022-11-14T08:54:26.454Z,87.90
2022-11-14T08:55:26.433Z,87.85
2022-11-14T08:56:26.427Z,87.54
2022-11-14T08:57:26.411Z,87.54
2022-11-14T08:58:26.430Z,87.34
2022-11-14T08:59:26.419Z,87.44
2022-11-14T09:00:26.604Z,87.65
2022-11-14T09:01:26.367Z,87.75
2022-11-14T09:02:31.382Z,87.34
2022-11-14T09:03:26.401Z,87.34
2022-11-14T09:04:26.415Z,87.03
2022-11-14T09:05:26.327Z,86.72
2022-11-14T09:06:26.367Z,86.82
2022-11-14T09:07:26.363Z,86.61
2022-11-14T09:08:26.317Z,86.55
2022-11-14T09:09:26.281Z,87.03
2022-11-14T09:10:26.289Z,87.17
2022-11-14T09:11:26.259Z,87.38
2022-11-14T09:12:26.245Z,87.24
2022-11-14T09:13:31.569Z,87.54
2022-11-14T09:14:26.260Z,87.13
2022-11-14T09:15:26.221Z,87.54
2022-11-14T09:16:26.272Z,87.19
2022-11-14T09:17:26.188Z,86.99
2022-11-14T09:18:26.209Z,86.82
2022-11-14T09:19:26.176Z,86.68
2022-11-14T09:20:32.218Z,86.58
2022-11-14T09:21:27.142Z,86.79
2022-11-14T09:22:26.160Z,86.79
2022-11-14T09:23:26.167Z,87.09
2022-11-14T09:24:31.138Z,86.79
2022-11-14T09:25:26.102Z,86.58
2022-11-14T09:26:26.099Z,86.58
2022-11-14T09:27:26.083Z,86.47
2022-11-14T09:28:26.094Z,86.79
2022-11-14T09:29:26.055Z,86.68
2022-11-14T09:30:26.109Z,86.79
2022-11-14T09:31:26.035Z,86.79
2022-11-14T09:32:26.043Z,86.68
2022-11-14T09:33:26.031Z,86.79
2022-11-14T09:34:25.998Z,86.58
2022-11-14T09:35:31.032Z,86.79
2022-11-14T09:36:25.978Z,86.23
2022-11-14T09:37:25.977Z,86.47
2022-11-14T09:38:25.971Z,86.27
2022-11-14T09:39:25.957Z,86.47
2022-11-14T09:40:25.934Z,86.88
2022-11-14T09:41:25.934Z,86.99
2022-11-14T09:42:25.912Z,86.88
2022-11-14T09:43:25.916Z,87.09
2022-11-14T09:44:25.902Z,86.64
2022-11-14T09:45:25.879Z,86.64
2022-11-14T09:46:30.887Z,86.33
2022-11-14T09:47:25.854Z,86.43
2022-11-14T09:48:25.899Z,86.54
2022-11-14T09:49:25.833Z,86.64
2022-11-14T09:50:26.282Z,86.54
2022-11-14T09:51:25.821Z,86.02
2022-11-14T09:52:25.852Z,86.13
2022-11-14T09:53:25.801Z,85.92
2022-11-14T09:54:25.798Z,86.33
2022-11-14T09:55:25.771Z,86.33
2022-11-14T09:56:25.761Z,86.33
2022-11-14T09:57:30.767Z,86.43
2022-11-14T09:58:25.748Z,86.43
2022-11-14T09:59:25.733Z,86.64
2022-11-14T10:00:25.726Z,86.54
2022-11-14T10:01:25.717Z,86.64
2022-11-14T10:02:25.703Z,86.74
2022-11-14T10:03:25.687Z,86.43
2022-11-14T10:04:25.687Z,86.43
2022-11-14T10:05:25.663Z,86.50
2022-11-14T10:06:25.642Z,86.43
2022-11-14T10:07:25.732Z,86.50
2022-11-14T10:08:30.663Z,86.13
2022-11-14T10:09:30.239Z,85.78
2022-11-14T10:10:26.596Z,85.88
2022-11-14T10:11:25.591Z,85.88
2022-11-14T10:12:25.583Z,85.33
2022-11-14T10:13:25.578Z,85.63
2022-11-14T10:14:25.553Z,85.33
2022-11-14T10:15:28.593Z,85.33
2022-11-14T10:16:26.550Z,85.02
2022-11-14T10:17:25.533Z,85.22
2022-11-14T10:18:25.533Z,84.05
2022-11-14T10:19:30.831Z,84.16
2022-11-14T10:20:25.486Z,84.05
2022-11-14T10:21:25.481Z,84.36
2022-11-14T10:22:25.478Z,84.56
2022-11-14T10:23:25.464Z,84.36
2022-11-14T10:24:25.449Z,83.91
2022-11-14T10:25:25.434Z,84.01
2022-11-14T10:26:25.421Z,84.53
2022-11-14T10:27:25.516Z,84.01
2022-11-14T10:28:25.411Z,83.50
2022-11-14T10:29:25.409Z,83.19
2022-11-14T10:30:30.444Z,83.50
2022-11-14T10:31:25.374Z,84.01
2022-11-14T10:32:25.376Z,84.08
2022-11-14T10:33:25.373Z,83.26
2022-11-14T10:34:25.340Z,83.15
2022-11-14T10:35:25.424Z,83.15
2022-11-14T10:36:25.316Z,82.81
2022-11-14T10:37:25.302Z,82.43
2022-11-14T10:38:25.315Z,82.70
2022-11-14T10:39:25.296Z,82.60
2022-11-14T10:40:25.267Z,82.70
2022-11-14T10:41:56.582Z,82.70
2022-11-14T10:42:26.252Z,82.50
2022-11-14T10:43:25.405Z,82.81
2022-11-14T10:44:25.231Z,82.40
2022-11-14T10:45:25.242Z,82.05
2022-11-14T10:46:25.304Z,82.26
2022-11-14T10:47:25.203Z,82.26
2022-11-14T10:48:25.199Z,81.85
2022-11-14T10:49:25.181Z,81.60
2022-11-14T10:50:25.214Z,81.29
2022-11-14T10:51:25.199Z,80.44
2022-11-14T10:52:30.156Z,81.26
2022-11-14T10:53:25.160Z,80.64
2022-11-14T10:54:25.178Z,80.74
2022-11-14T10:55:43.512Z,80.85
2022-11-14T10:56:26.090Z,80.85
2022-11-14T10:57:25.138Z,81.15
2022-11-14T10:58:25.077Z,80.74
2022-11-14T10:59:25.205Z,81.01
2022-11-14T11:00:25.042Z,80.95
2022-11-14T11:01:25.066Z,80.85
2022-11-14T11:02:25.035Z,80.64
2022-11-14T11:03:30.066Z,80.85
2022-11-14T11:04:25.044Z,81.05
2022-11-14T11:05:25.042Z,80.95
2022-11-14T11:06:24.976Z,80.91
2022-11-14T11:07:25.448Z,81.12
2022-11-14T11:08:51.371Z,81.01
2022-11-14T11:09:25.974Z,81.12
2022-11-14T11:10:24.969Z,80.71
2022-11-14T11:11:24.954Z,80.91
2022-11-14T11:12:24.929Z,81.12
2022-11-14T11:13:24.944Z,81.01
2022-11-14T11:14:29.917Z,80.81
2022-11-14T11:15:24.881Z,81.01
2022-11-14T11:16:24.872Z,80.81
2022-11-14T11:17:29.594Z,80.81
2022-11-14T11:18:25.854Z,81.01
2022-11-14T11:19:24.842Z,81.01
2022-11-14T11:20:24.827Z,80.71
2022-11-14T11:21:24.906Z,81.01
2022-11-14T11:22:24.796Z,81.01
2022-11-14T11:23:24.816Z,80.40
2022-11-14T11:24:24.774Z,80.60
2022-11-14T11:25:29.801Z,80.51
2022-11-14T11:26:24.756Z,80.57
2022-11-14T11:27:24.757Z,80.71
2022-11-14T11:28:24.739Z,80.81
2022-11-14T11:29:24.729Z,80.51
2022-11-14T11:30:24.712Z,81.43
2022-11-14T11:31:24.713Z,81.94
2022-11-14T11:32:24.689Z,81.94
2022-11-14T11:33:24.698Z,82.04
2022-11-14T11:34:24.663Z,81.94
2022-11-14T11:35:24.651Z,81.84
2022-11-14T11:36:29.679Z,81.94
2022-11-14T11:37:24.683Z,82.04
2022-11-14T11:38:24.637Z,81.43
2022-11-14T11:39:24.623Z,81.49
2022-11-14T11:40:24.594Z,82.14
2022-11-14T11:42:25.580Z,82.21
2022-11-14T11:43:38.255Z,82.04
2022-11-14T11:44:25.547Z,82.04
2022-11-14T11:45:24.539Z,82.35
2022-11-14T11:46:24.541Z,81.84
2022-11-14T11:47:29.736Z,82.04
2022-11-14T11:48:24.520Z,82.35
2022-11-14T11:49:24.496Z,82.55
2022-11-14T11:50:24.480Z,82.55
2022-11-14T11:51:24.499Z,82.45
2022-11-14T11:52:24.459Z,82.24
2022-11-14T11:53:24.498Z,82.35
2022-11-14T11:54:24.444Z,83.37
2022-11-14T11:55:24.449Z,82.86
2022-11-14T11:56:24.412Z,82.86
2022-11-14T11:57:24.402Z,82.86
2022-11-14T11:58:29.428Z,82.65
2022-11-14T11:59:24.396Z,82.86
2022-11-14T12:00:24.385Z,82.86
2022-11-14T12:01:24.363Z,82.86
2022-11-14T12:02:24.535Z,82.96
2022-11-14T12:03:24.470Z,83.17
2022-11-14T12:04:24.324Z,83.84
2022-11-14T12:05:24.313Z,83.68
2022-11-14T12:06:24.299Z,83.68
2022-11-14T12:07:24.334Z,83.88
2022-11-14T12:08:24.277Z,83.68
2022-11-14T12:09:48.775Z,84.29
2022-11-14T12:10:25.260Z,84.39
2022-11-14T12:11:24.268Z,83.58
2022-11-14T12:12:24.249Z,83.88
2022-11-14T12:13:24.253Z,83.78
2022-11-14T12:14:24.211Z,83.78
2022-11-14T12:15:24.211Z,83.47
2022-11-14T12:16:24.193Z,83.68
2022-11-14T12:17:24.185Z,83.88
2022-11-14T12:18:24.175Z,84.80
2022-11-14T12:19:24.178Z,83.78
2022-11-14T12:20:29.165Z,84.70
2022-11-14T12:21:24.143Z,84.44
2022-11-14T12:22:24.125Z,84.91
2022-11-14T12:23:24.135Z,84.23
2022-11-14T12:24:24.149Z,85.01
2022-11-14T12:25:24.088Z,85.46
2022-11-14T12:26:24.074Z,85.77
2022-11-14T12:27:24.207Z,85.46
2022-11-14T12:28:24.067Z,85.77
2022-11-14T12:29:25.338Z,85.56
2022-11-14T12:30:24.031Z,85.77
2022-11-14T12:31:29.127Z,85.36
2022-11-14T12:32:24.011Z,85.66
2022-11-14T12:33:24.010Z,85.72
2022-11-14T12:34:24.059Z,85.87
2022-11-14T12:35:24.027Z,85.87
2022-11-14T12:36:23.967Z,85.56
2022-11-14T12:37:24.002Z,85.56
2022-11-14T12:38:23.954Z,85.36
2022-11-14T12:39:23.933Z,85.46
2022-11-14T12:40:23.979Z,85.66
2022-11-14T12:41:23.908Z,85.66
2022-11-14T12:42:28.955Z,85.56
2022-11-14T12:43:23.898Z,85.25
2022-11-14T12:44:23.943Z,85.46
2022-11-14T12:45:23.875Z,85.46
2022-11-14T12:46:23.860Z,85.56
2022-11-14T12:47:23.841Z,85.25
2022-11-14T12:48:23.842Z,85.25
2022-11-14T12:49:23.823Z,84.99
2022-11-14T12:50:23.813Z,85.05
2022-11-14T12:51:23.904Z,84.88
2022-11-14T12:52:23.781Z,85.09
2022-11-14T12:53:29.091Z,85.30
2022-11-14T12:54:23.761Z,85.19
2022-11-14T12:55:23.753Z,84.47
2022-11-14T12:56:23.861Z,84.78
2022-11-14T12:57:23.733Z,84.88
2022-11-14T12:58:23.734Z,84.68
2022-11-14T12:59:23.826Z,84.78
2022-11-14T13:00:23.703Z,84.88
2022-11-14T13:01:23.734Z,84.92
2022-11-14T13:02:23.679Z,84.41
2022-11-14T13:03:23.671Z,84.92
2022-11-14T13:04:28.683Z,84.52
2022-11-14T13:05:23.637Z,84.92
2022-11-14T13:06:23.634Z,84.92
2022-11-14T13:07:23.650Z,85.44
2022-11-14T13:08:23.625Z,84.31
2022-11-14T13:09:23.633Z,84.41
2022-11-14T13:10:23.579Z,84.41
2022-11-14T13:11:23.571Z,85.13
2022-11-14T13:12:23.569Z,84.92
2022-11-14T13:13:23.553Z,84.92
2022-11-14T13:14:23.572Z,84.61
2022-11-14T13:15:28.547Z,85.09
2022-11-14T13:16:23.511Z,84.31
2022-11-14T13:17:23.510Z,83.80
2022-11-14T13:18:23.497Z,84.41
2022-11-14T13:19:23.501Z,84.00
2022-11-14T13:20:23.472Z,84.17
2022-11-14T13:21:23.464Z,83.96
2022-11-14T13:22:23.445Z,83.96
2022-11-14T13:23:23.439Z,83.96
2022-11-14T13:24:23.438Z,83.45
2022-11-14T13:25:23.448Z,83.65
2022-11-14T13:26:28.508Z,83.76
2022-11-14T13:27:39.197Z,84.47
2022-11-14T13:28:25.180Z,83.86
2022-11-14T13:29:23.381Z,83.65
2022-11-14T13:30:23.381Z,83.55
2022-11-14T13:31:23.353Z,83.76
2022-11-14T13:32:23.333Z,84.17
2022-11-14T13:33:23.323Z,83.65
2022-11-14T13:34:23.325Z,83.92
2022-11-14T13:35:23.302Z,84.27
2022-11-14T13:36:23.291Z,83.65
2022-11-14T13:37:28.374Z,83.86
2022-11-14T13:38:23.267Z,83.51
2022-11-14T13:39:23.296Z,83.76
2022-11-14T13:40:23.245Z,84.06
2022-11-14T13:41:24.596Z,84.12
2022-11-14T13:42:23.260Z,83.82
2022-11-14T13:43:23.227Z,83.72
2022-11-14T13:44:23.225Z,83.82
2022-11-14T13:45:23.189Z,83.51
2022-11-14T13:46:23.216Z,83.82
2022-11-14T13:47:23.168Z,83.86
2022-11-14T13:48:28.194Z,84.03
2022-11-14T13:49:23.155Z,83.92
2022-11-14T13:50:23.132Z,83.82
2022-11-14T13:51:42.351Z,83.72
2022-11-14T13:52:24.123Z,83.92
2022-11-14T13:53:23.096Z,83.72
2022-11-14T13:54:23.130Z,83.72
2022-11-14T13:55:23.077Z,83.27
2022-11-14T13:56:23.071Z,82.96
2022-11-14T13:57:23.057Z,83.27
2022-11-14T13:58:23.046Z,83.68
2022-11-14T13:59:28.233Z,83.17
2022-11-14T14:00:23.031Z,82.90
2022-11-14T14:01:23.054Z,83.06
2022-11-14T14:02:23.018Z,82.79
2022-11-14T14:03:22.990Z,82.76
2022-11-14T14:04:23.017Z,83.41
2022-11-14T14:05:22.992Z,83.72
2022-11-14T14:06:22.955Z,82.79
2022-11-14T14:07:22.972Z,83.00
2022-11-14T14:08:22.929Z,83.00
2022-11-14T14:09:22.917Z,83.31
2022-11-14T14:10:28.022Z,83.31
2022-11-14T14:11:22.920Z,83.92
2022-11-14T14:12:22.890Z,82.79
2022-11-14T14:13:22.884Z,83.31
2022-11-14T14:14:22.868Z,83.10
2022-11-14T14:15:22.878Z,83.10
2022-11-14T14:16:22.847Z,83.20
2022-11-14T14:17:22.834Z,83.10
2022-11-14T14:18:22.838Z,83.20
2022-11-14T14:19:25.971Z,83.92
2022-11-14T14:20:22.830Z,83.00
2022-11-14T14:21:27.807Z,84.09
2022-11-14T14:22:22.782Z,82.90
2022-11-14T14:23:22.761Z,82.79
2022-11-14T14:24:22.758Z,83.31
2022-11-14T14:25:22.772Z,82.90
2022-11-14T14:26:22.732Z,83.06
2022-11-14T14:27:22.716Z,82.59
2022-11-14T14:28:22.705Z,83.00
2022-11-14T14:29:22.704Z,82.69
2022-11-14T14:30:22.698Z,83.00
2022-11-14T14:31:22.670Z,83.06
2022-11-14T14:32:27.685Z,82.69
2022-11-14T14:33:22.657Z,82.69
2022-11-14T14:34:22.680Z,82.90
2022-11-14T14:35:22.641Z,82.79
2022-11-14T14:36:22.628Z,83.88
2022-11-14T14:37:22.602Z,84.03
2022-11-14T14:38:22.596Z,83.82
2022-11-14T14:39:22.602Z,83.51
2022-11-14T14:40:22.597Z,83.72
2022-11-14T14:41:22.563Z,84.12
2022-11-14T14:42:22.548Z,84.12
2022-11-14T14:43:27.564Z,83.61
2022-11-14T14:44:22.535Z,83.72
2022-11-14T14:45:22.530Z,83.92
2022-11-14T14:46:22.509Z,83.82
2022-11-14T14:47:22.495Z,83.82
2022-11-14T14:48:22.484Z,83.72
2022-11-14T14:49:22.471Z,84.03
2022-11-14T14:50:22.522Z,83.72
2022-11-14T14:51:22.450Z,83.41
2022-11-14T14:52:22.450Z,83.31
2022-11-14T14:53:22.429Z,84.23
2022-11-14T14:54:27.443Z,84.03
2022-11-14T14:55:22.420Z,84.23
2022-11-14T14:56:22.392Z,84.12
2022-11-14T14:57:23.536Z,84.23
2022-11-14T14:58:22.809Z,84.12
2022-11-14T14:59:22.398Z,83.92
2022-11-14T15:00:22.381Z,84.23
2022-11-14T15:01:22.434Z,84.33
2022-11-14T15:02:22.325Z,83.82
2022-11-14T15:03:22.323Z,83.92
2022-11-14T15:04:22.303Z,84.29
2022-11-14T15:05:27.339Z,84.19
2022-11-14T15:06:22.282Z,83.92
2022-11-14T15:07:22.316Z,83.92
2022-11-14T15:08:22.265Z,83.98
2022-11-14T15:09:22.272Z,84.19
2022-11-14T15:10:22.245Z,84.09
2022-11-14T15:11:22.223Z,83.92
2022-11-14T15:12:22.249Z,83.88
2022-11-14T15:13:22.205Z,83.98
2022-11-14T15:14:22.192Z,84.19
2022-11-14T15:15:22.226Z,83.88
2022-11-14T15:16:27.214Z,84.03
2022-11-14T15:17:22.171Z,83.88
2022-11-14T15:18:22.142Z,83.88
2022-11-14T15:19:22.139Z,83.92
2022-11-14T15:20:22.132Z,84.03
2022-11-14T15:21:22.126Z,83.88
2022-11-14T15:22:22.100Z,83.88
2022-11-14T15:23:22.093Z,83.88
2022-11-14T15:24:22.093Z,83.98
2022-11-14T15:25:22.080Z,83.88
2022-11-14T15:26:22.065Z,83.88
2022-11-14T15:27:27.072Z,83.88
2022-11-14T15:28:22.055Z,83.88
2022-11-14T15:29:22.023Z,84.09
2022-11-14T15:30:22.069Z,84.09
2022-11-14T15:31:21.995Z,84.09
2022-11-14T15:32:22.013Z,83.98
2022-11-14T15:33:21.974Z,84.39
2022-11-14T15:34:21.969Z,83.98
2022-11-14T15:35:25.266Z,83.88
2022-11-14T15:36:21.964Z,83.88
2022-11-14T15:37:21.948Z,84.23
2022-11-14T15:39:22.935Z,84.80
2022-11-14T15:40:21.914Z,84.44
2022-11-14T15:41:21.900Z,84.39
2022-11-14T15:42:21.872Z,84.95
2022-11-14T15:43:21.862Z,84.60
2022-11-14T15:44:21.850Z,85.15
2022-11-14T15:45:21.858Z,84.80
2022-11-14T15:46:21.844Z,84.74
2022-11-14T15:47:21.954Z,84.23
2022-11-14T15:48:21.805Z,84.29
2022-11-14T15:49:26.840Z,84.29
2022-11-14T15:50:21.789Z,84.80
2022-11-14T15:51:21.887Z,84.70
2022-11-14T15:52:21.767Z,84.50
2022-11-14T15:53:21.776Z,84.33
2022-11-14T15:54:21.739Z,84.80
2022-11-14T15:55:21.743Z,84.09
2022-11-14T15:56:21.752Z,83.82
2022-11-14T15:57:21.805Z,84.33
2022-11-14T15:58:28.283Z,83.98
2022-11-14T15:59:22.685Z,84.39
2022-11-14T16:00:26.695Z,84.70
2022-11-14T16:01:21.818Z,84.50
2022-11-14T16:02:21.654Z,84.19
2022-11-14T16:03:21.641Z,84.29
2022-11-14T16:04:21.679Z,84.80
2022-11-14T16:05:21.617Z,84.39
2022-11-14T16:06:21.619Z,84.50
2022-11-14T16:07:21.660Z,84.80
2022-11-14T16:08:21.597Z,84.39
2022-11-14T16:09:21.593Z,84.29
2022-11-14T16:10:21.565Z,84.29
2022-11-14T16:11:26.706Z,84.50
2022-11-14T16:12:21.560Z,83.78
2022-11-14T16:13:21.536Z,83.78
2022-11-14T16:14:21.564Z,84.80
2022-11-14T16:15:21.504Z,84.60
2022-11-14T16:16:21.510Z,84.50
2022-11-14T16:17:21.479Z,84.25
2022-11-14T16:18:21.477Z,83.84
2022-11-14T16:19:21.457Z,83.84
2022-11-14T16:20:21.456Z,84.05
2022-11-14T16:21:21.453Z,83.84
2022-11-14T16:22:26.663Z,83.84
2022-11-14T16:23:21.435Z,83.95
2022-11-14T16:24:21.448Z,83.95
2022-11-14T16:25:21.412Z,84.25
2022-11-14T16:26:21.393Z,83.64
2022-11-14T16:27:21.371Z,83.54
2022-11-14T16:28:21.362Z,83.95
2022-11-14T16:29:21.347Z,83.29
2022-11-14T16:30:21.345Z,83.70
2022-11-14T16:31:21.348Z,83.70
2022-11-14T16:32:21.315Z,82.98
2022-11-14T16:33:26.339Z,83.70
2022-11-14T16:34:21.292Z,83.09
2022-11-14T16:35:21.278Z,83.09
2022-11-14T16:36:21.513Z,83.19
2022-11-14T16:37:21.307Z,84.01
2022-11-14T16:38:21.265Z,83.60
2022-11-14T16:39:21.235Z,83.60
2022-11-14T16:40:21.324Z,83.60
2022-11-14T16:41:21.270Z,83.81
2022-11-14T16:42:21.215Z,83.60
2022-11-14T16:43:21.193Z,83.81
2022-11-14T16:44:26.425Z,83.50
2022-11-14T16:45:21.204Z,83.91
2022-11-14T16:46:21.216Z,83.29
2022-11-14T16:47:21.158Z,83.81
2022-11-14T16:48:21.148Z,83.95
2022-11-14T16:49:21.120Z,83.84
2022-11-14T16:50:21.114Z,83.95
2022-11-14T16:51:46.632Z,83.70
2022-11-14T16:52:22.105Z,83.19
2022-11-14T16:53:21.092Z,83.54
2022-11-14T16:54:21.069Z,84.05
2022-11-14T16:55:26.074Z,84.15
2022-11-14T16:56:21.043Z,84.05
2022-11-14T16:57:21.114Z,84.05
2022-11-14T16:58:21.048Z,84.05
2022-11-14T16:59:21.013Z,84.66
2022-11-14T17:00:21.013Z,84.46
2022-11-14T17:01:21.686Z,84.25
2022-11-14T17:02:21.069Z,84.25
2022-11-14T17:03:20.964Z,84.87
2022-11-14T17:04:20.965Z,84.72
2022-11-14T17:05:20.950Z,84.46
2022-11-14T17:06:26.033Z,84.36
2022-11-14T17:07:23.034Z,85.38
2022-11-14T17:08:20.940Z,84.52
2022-11-14T17:09:20.906Z,84.36
2022-11-14T17:10:20.914Z,84.93
2022-11-14T17:11:20.880Z,84.22
2022-11-14T17:12:20.884Z,84.52
2022-11-14T17:13:24.395Z,84.42
2022-11-14T17:14:20.864Z,84.72
2022-11-14T17:15:20.848Z,84.63
2022-11-14T17:16:20.827Z,84.31
2022-11-14T17:17:25.927Z,84.52
2022-11-14T17:18:20.810Z,84.72
2022-11-14T17:19:20.794Z,84.63
2022-11-14T17:20:20.818Z,84.72
2022-11-14T17:21:20.776Z,84.42
2022-11-14T17:22:20.767Z,85.34
2022-11-14T17:23:20.767Z,84.83
2022-11-14T17:24:20.741Z,84.63
2022-11-14T17:25:20.771Z,84.93
2022-11-14T17:26:20.715Z,84.52
2022-11-14T17:27:20.732Z,84.83
2022-11-14T17:28:25.736Z,84.93
2022-11-14T17:29:20.673Z,85.34
2022-11-14T17:30:20.680Z,85.03
2022-11-14T17:31:20.678Z,85.07
2022-11-14T17:32:20.653Z,84.97
2022-11-14T17:33:20.645Z,85.14
2022-11-14T17:34:20.681Z,85.24
2022-11-14T17:35:20.609Z,85.14
2022-11-14T17:36:20.601Z,85.17
2022-11-14T17:37:20.587Z,84.93
2022-11-14T17:38:20.595Z,84.97
2022-11-14T17:39:25.619Z,84.72
2022-11-14T17:40:20.575Z,85.48
2022-11-14T17:41:20.559Z,85.24
2022-11-14T17:42:20.543Z,85.34
2022-11-14T17:43:20.541Z,85.34
2022-11-14T17:44:20.534Z,85.58
2022-11-14T17:45:20.502Z,85.44
2022-11-14T17:46:20.495Z,85.34
2022-11-14T17:47:20.492Z,85.03
2022-11-14T17:48:20.478Z,85.17
2022-11-14T17:49:20.452Z,85.14
2022-11-14T17:50:25.470Z,85.44
2022-11-14T17:51:20.431Z,85.58
2022-11-14T17:52:20.425Z,85.34
2022-11-14T17:53:20.441Z,85.03
2022-11-14T17:54:20.400Z,85.24